SBCP/CAW METAR and TAF weather

Enter ICAO airport designator
Station Type Date Time Source
SBCP METAR 2021/07/26 17:00 UTC NOAA

SBCP 261700Z 09014KT CAVOK 27/16 Q1017


Station Type Date Time Source
SBCP Decoded METAR 2021/07/26 17:00 UTC NOAA

Campos, Brazil (SBCP) 21-45S 041-20W 11M
Jul 26, 2021 - 01:00 PM EDT / 2021.07.26 1700 UTC
Wind: from the E (090 degrees) at 16 MPH (14 KT):0
Visibility: greater than 7 mile(s):0
Temperature: 80 F (27 C)
Dew Point: 60 F (16 C)
Relative Humidity: 50%
Pressure (altimeter): 30.03 in. Hg (1017 hPa)
ob: SBCP 261700Z 09014KT CAVOK 27/16 Q1017
cycle: 17

Station Type Date Time Source
SBCP TAF 2021/07/26 18:00 UTC NOAA

TAF SBCP 261500Z 2618/2706 08017KT 9999 FEW035 TX26/2618Z TN18/2706Z
RMK PGU

Example: see airport list